createdAt,value
2019-04-22T00:00:36.063Z,56.57
2019-04-22T00:01:31.194Z,56.68
2019-04-22T00:02:28.572Z,56.68
2019-04-22T00:03:35.567Z,56.57
2019-04-22T00:04:40.292Z,57.18
2019-04-22T00:05:51.139Z,57.31
2019-04-22T00:06:51.726Z,57.21
2019-04-22T00:08:00.119Z,57.24
2019-04-22T00:08:56.045Z,57.14
2019-04-22T00:09:58.369Z,57.65
2019-04-22T00:10:54.209Z,58.08
2019-04-22T00:11:54.879Z,58.08
2019-04-22T00:12:57.805Z,58.41
2019-04-22T00:14:47.716Z,59.05
2019-04-22T00:15:51.647Z,59.05
2019-04-22T00:16:53.488Z,59.16
2019-04-22T00:18:00.310Z,59.87
2019-04-22T00:19:11.457Z,59.28
2019-04-22T00:20:00.397Z,59.18
2019-04-22T00:20:51.777Z,59.49
2019-04-22T00:21:55.221Z,60.61
2019-04-22T00:22:50.503Z,60.41
2019-04-22T00:23:53.094Z,60.41
2019-04-22T00:24:51.252Z,60.51
2019-04-22T00:25:57.345Z,60.71
2019-04-22T00:26:57.097Z,60.51
2019-04-22T00:27:57.506Z,61.22
2019-04-22T00:29:08.138Z,61.22
2019-04-22T00:30:13.290Z,60.61
2019-04-22T00:30:54.733Z,61.02
2019-04-22T00:31:52.921Z,60.82
2019-04-22T00:32:50.049Z,61.02
2019-04-22T00:33:53.169Z,61.02
2019-04-22T00:34:53.728Z,60.82
2019-04-22T00:35:51.130Z,61.05
2019-04-22T00:36:57.385Z,60.92
2019-04-22T00:37:56.946Z,61.15
2019-04-22T00:38:51.647Z,61.69
2019-04-22T00:39:51.789Z,61.49
2019-04-22T00:40:53.881Z,61.46
2019-04-22T00:41:56.944Z,61.76
2019-04-22T00:42:52.978Z,61.49
2019-04-22T00:43:59.594Z,61.99
2019-04-22T00:44:51.867Z,61.46
2019-04-22T00:45:53.729Z,61.90
2019-04-22T00:46:52.237Z,62.17
2019-04-22T00:47:54.871Z,61.90
2019-04-22T00:49:18.718Z,63.22
2019-04-22T00:51:04.198Z,62.30
2019-04-22T00:52:01.861Z,61.99
2019-04-22T00:52:59.827Z,62.20
2019-04-22T00:53:57.817Z,62.30
2019-04-22T00:55:04.163Z,61.90
2019-04-22T00:55:59.198Z,62.17
2019-04-22T00:56:50.752Z,61.97
2019-04-22T00:57:54.671Z,62.27
2019-04-22T00:59:09.813Z,62.68
2019-04-22T00:59:52.358Z,62.37
2019-04-22T01:00:55.886Z,61.63
2019-04-22T01:01:55.803Z,61.56
2019-04-22T01:02:54.084Z,61.46
2019-04-22T01:04:00.811Z,61.46
2019-04-22T01:04:56.008Z,61.66
2019-04-22T01:05:55.406Z,62.48
2019-04-22T01:06:51.639Z,61.76
2019-04-22T01:07:51.402Z,61.76
2019-04-22T01:08:57.793Z,61.97
2019-04-22T01:09:58.861Z,61.76
2019-04-22T01:10:52.964Z,62.48
2019-04-22T01:11:53.990Z,61.94
2019-04-22T01:12:53.358Z,61.73
2019-04-22T01:13:53.338Z,62.27
2019-04-22T01:14:59.208Z,61.97
2019-04-22T01:15:57.477Z,61.97
2019-04-22T01:16:55.145Z,62.48
2019-04-22T01:17:51.095Z,61.56
2019-04-22T01:18:55.228Z,61.46
2019-04-22T01:19:56.223Z,62.51
2019-04-22T01:21:05.949Z,62.40
2019-04-22T01:21:52.463Z,62.92
2019-04-22T01:22:55.935Z,62.61
2019-04-22T01:23:47.998Z,62.61
2019-04-22T01:24:50.493Z,62.61
2019-04-22T01:25:47.560Z,62.63
2019-04-22T01:26:47.675Z,63.45
2019-04-22T01:27:46.258Z,63.56
2019-04-22T01:28:39.529Z,63.66
2019-04-22T01:29:44.060Z,63.39
2019-04-22T01:30:38.333Z,63.39
2019-04-22T01:31:31.462Z,63.48
2019-04-22T01:32:32.805Z,64.00
2019-04-22T01:33:35.143Z,64.00
2019-04-22T01:34:40.372Z,63.45
2019-04-22T01:35:41.181Z,64.00
2019-04-22T01:36:48.657Z,63.28
2019-04-22T01:37:45.488Z,64.10
2019-04-22T01:38:51.221Z,64.71
2019-04-22T01:39:54.425Z,64.40
2019-04-22T01:40:52.583Z,65.02
2019-04-22T01:42:06.098Z,64.40
2019-04-22T01:42:56.225Z,65.22
2019-04-22T01:43:58.786Z,65.02
2019-04-22T01:44:50.600Z,65.63
2019-04-22T01:45:57.434Z,66.45
2019-04-22T01:47:08.061Z,66.45
2019-04-22T01:47:49.145Z,66.25
2019-04-22T01:48:57.802Z,66.14
2019-04-22T01:49:54.144Z,66.35
2019-04-22T01:50:50.178Z,66.89
2019-04-22T01:52:11.451Z,67.57
2019-04-22T01:53:00.922Z,67.07
2019-04-22T01:54:01.704Z,67.37
2019-04-22T01:54:58.555Z,67.78
2019-04-22T01:55:53.362Z,67.57
2019-04-22T01:56:53.952Z,67.10
2019-04-22T01:57:47.518Z,66.99
2019-04-22T01:58:44.168Z,67.50
2019-04-22T01:59:45.961Z,67.74
2019-04-22T02:00:58.307Z,68.87
2019-04-22T02:03:10.303Z,68.25
2019-04-22T02:03:54.886Z,68.15
2019-04-22T02:04:53.640Z,68.66
2019-04-22T02:05:56.547Z,66.82
2019-04-22T02:07:48.206Z,67.10
2019-04-22T02:10:12.682Z,64.17
2019-04-22T02:10:54.615Z,63.93
2019-04-22T02:11:57.265Z,62.92
2019-04-22T02:12:54.239Z,62.04
2019-04-22T02:13:56.590Z,61.73
2019-04-22T02:14:52.486Z,62.04
2019-04-22T02:15:52.743Z,62.14
2019-04-22T02:16:56.174Z,62.04
2019-04-22T02:17:54.799Z,62.04
2019-04-22T02:18:52.426Z,61.46
2019-04-22T02:20:48.914Z,61.97
2019-04-22T02:21:51.610Z,62.58
2019-04-22T02:23:23.964Z,63.12
2019-04-22T02:24:54.282Z,64.07
2019-04-22T02:25:57.952Z,64.27
2019-04-22T02:26:48.319Z,63.45
2019-04-22T02:27:54.754Z,62.74
2019-04-22T02:28:45.848Z,64.99
2019-04-22T02:31:59.031Z,64.61
2019-04-22T02:33:11.056Z,64.81
2019-04-22T02:36:58.387Z,68.01
2019-04-22T02:37:54.995Z,68.15
2019-04-22T02:39:57.268Z,68.55
2019-04-22T02:42:00.789Z,68.76
2019-04-22T02:43:01.399Z,68.76
2019-04-22T02:44:53.679Z,69.07
2019-04-22T02:46:13.530Z,69.51
2019-04-22T02:47:14.103Z,69.41
2019-04-22T02:47:59.210Z,69.00
2019-04-22T02:50:02.012Z,69.95
2019-04-22T02:51:06.159Z,70.16
2019-04-22T02:51:52.420Z,69.54
2019-04-22T02:52:50.341Z,70.16
2019-04-22T02:56:21.883Z,70.77
2019-04-22T02:56:54.346Z,70.87
2019-04-22T02:58:21.833Z,71.01
2019-04-22T02:59:02.422Z,70.98
2019-04-22T03:02:14.392Z,71.32
2019-04-22T03:03:09.183Z,71.22
2019-04-22T03:04:11.032Z,71.73
2019-04-22T03:05:06.308Z,71.42
2019-04-22T03:06:07.378Z,71.56
2019-04-22T03:07:05.479Z,71.45
2019-04-22T03:08:10.838Z,71.56
2019-04-22T03:09:59.481Z,71.56
2019-04-22T03:12:11.281Z,72.31
2019-04-22T03:13:04.747Z,72.41
2019-04-22T03:15:07.816Z,72.20
2019-04-22T03:16:23.564Z,73.19
2019-04-22T03:16:50.439Z,72.82
2019-04-22T03:18:01.229Z,73.74
2019-04-22T03:20:02.566Z,72.82
2019-04-22T03:20:58.324Z,72.82
2019-04-22T03:22:00.750Z,72.92
2019-04-22T03:23:05.814Z,73.23
2019-04-22T03:24:12.140Z,73.74
2019-04-22T03:25:24.156Z,73.85
2019-04-22T03:26:11.522Z,72.72
2019-04-22T03:27:00.907Z,72.51
2019-04-22T03:28:08.804Z,72.65
2019-04-22T03:30:30.223Z,74.40
2019-04-22T03:34:39.548Z,74.49
2019-04-22T03:37:58.653Z,73.88
2019-04-22T03:39:15.540Z,73.98
2019-04-22T03:40:04.375Z,74.08
2019-04-22T03:45:00.626Z,75.35
2019-04-22T03:45:46.424Z,75.45
2019-04-22T03:48:01.506Z,75.76
2019-04-22T03:49:12.139Z,74.94
2019-04-22T03:50:04.077Z,74.94
2019-04-22T03:51:04.500Z,74.94
2019-04-22T03:52:05.653Z,74.84
2019-04-22T03:54:11.112Z,75.66
2019-04-22T03:56:47.331Z,74.74
2019-04-22T03:57:51.946Z,74.12
2019-04-22T03:59:07.552Z,74.74
2019-04-22T04:00:15.720Z,75.52
2019-04-22T04:01:03.129Z,74.74
2019-04-22T04:04:11.528Z,75.04
2019-04-22T04:04:50.497Z,74.74
2019-04-22T04:08:14.598Z,75.49
2019-04-22T04:09:03.865Z,76.21
2019-04-22T04:10:00.699Z,75.80
2019-04-22T04:10:52.739Z,74.98
2019-04-22T04:12:00.089Z,74.67
2019-04-22T04:13:03.310Z,75.49
2019-04-22T04:14:05.168Z,75.59
2019-04-22T04:16:10.694Z,75.08
2019-04-22T04:22:00.703Z,76.51
2019-04-22T04:25:24.927Z,75.59
2019-04-22T04:26:05.057Z,75.29
2019-04-22T04:29:05.082Z,76.21
2019-04-22T04:30:12.754Z,76.31
2019-04-22T04:31:09.446Z,76.35
2019-04-22T04:32:11.805Z,75.90
2019-04-22T04:32:57.095Z,76.35
2019-04-22T04:38:24.019Z,76.82
2019-04-22T04:40:07.990Z,76.31
2019-04-22T04:40:57.982Z,76.04
2019-04-22T04:42:09.460Z,76.14
2019-04-22T04:43:07.763Z,76.00
2019-04-22T04:44:01.600Z,76.10
2019-04-22T04:46:02.884Z,75.18
2019-04-22T04:46:59.167Z,75.59
2019-04-22T04:47:54.866Z,75.56
2019-04-22T04:49:57.473Z,75.29
2019-04-22T04:51:11.061Z,74.98
2019-04-22T04:52:03.960Z,74.57
2019-04-22T04:53:06.375Z,74.36
2019-04-22T04:54:08.679Z,75.38
2019-04-22T04:55:57.814Z,75.38
2019-04-22T04:57:17.409Z,74.77
2019-04-22T04:59:13.325Z,73.95
2019-04-22T05:01:20.438Z,74.05
2019-04-22T05:02:12.294Z,73.40
2019-04-22T05:03:15.566Z,72.58
2019-04-22T05:04:33.870Z,72.55
2019-04-22T05:05:11.758Z,73.85
2019-04-22T05:06:13.074Z,72.72
2019-04-22T05:08:19.788Z,71.59
2019-04-22T05:10:09.840Z,70.84
2019-04-22T05:11:05.671Z,71.25
2019-04-22T05:12:19.507Z,71.11
2019-04-22T05:13:03.214Z,71.45
2019-04-22T05:14:17.248Z,70.02
2019-04-22T05:15:11.318Z,69.47
2019-04-22T05:17:12.945Z,69.06
2019-04-22T05:18:06.206Z,69.27
2019-04-22T05:19:07.611Z,68.45
2019-04-22T05:20:12.946Z,68.41
2019-04-22T05:22:59.486Z,69.75
2019-04-22T05:24:15.197Z,70.98
2019-04-22T05:25:04.764Z,71.80
2019-04-22T05:26:06.892Z,72.00
2019-04-22T05:27:05.773Z,71.15
2019-04-22T05:27:57.603Z,71.45
2019-04-22T05:29:08.046Z,70.74
2019-04-22T05:30:21.037Z,69.71
2019-04-22T05:31:00.511Z,69.10
2019-04-22T05:33:03.953Z,69.71
2019-04-22T05:34:04.541Z,69.82
2019-04-22T05:34:59.771Z,70.53
2019-04-22T05:36:02.698Z,69.51
2019-04-22T05:37:01.289Z,70.09
2019-04-22T05:38:04.826Z,70.12
2019-04-22T05:39:01.841Z,69.27
2019-04-22T05:39:56.532Z,69.20
2019-04-22T05:40:56.160Z,69.38
2019-04-22T05:42:03.661Z,68.76
2019-04-22T05:43:00.179Z,68.97
2019-04-22T05:44:03.558Z,66.72
2019-04-22T05:45:04.580Z,66.78
2019-04-22T05:45:57.889Z,68.22
2019-04-22T05:46:52.778Z,65.53
2019-04-22T05:47:57.738Z,64.81
2019-04-22T05:48:58.775Z,62.74
2019-04-22T05:49:54.621Z,65.67
2019-04-22T05:50:59.305Z,64.14
2019-04-22T05:51:56.704Z,62.40
2019-04-22T05:53:03.193Z,61.79
2019-04-22T05:54:02.588Z,61.97
2019-04-22T05:55:02.984Z,62.76
2019-04-22T05:56:09.987Z,62.65
2019-04-22T05:56:58.673Z,61.53
2019-04-22T05:58:02.723Z,62.04
2019-04-22T06:00:04.621Z,61.53
2019-04-22T06:01:30.714Z,62.35
2019-04-22T06:05:19.703Z,61.30
2019-04-22T06:05:55.124Z,60.96
2019-04-22T06:07:04.837Z,60.96
2019-04-22T06:08:00.167Z,60.14
2019-04-22T06:10:06.694Z,60.83
2019-04-22T06:11:01.473Z,61.14
2019-04-22T06:11:55.587Z,60.30
2019-04-22T06:12:57.288Z,59.55
2019-04-22T06:13:59.176Z,58.58
2019-04-22T06:15:01.478Z,55.43
2019-04-22T06:15:56.889Z,52.59
2019-04-22T06:17:02.013Z,50.64
2019-04-22T06:18:06.496Z,47.52
2019-04-22T06:19:05.302Z,45.21
2019-04-22T06:19:57.647Z,44.55
2019-04-22T06:21:58.017Z,40.59
2019-04-22T06:24:07.195Z,37.68
2019-04-22T06:25:01.107Z,35.23
2019-04-22T06:28:07.142Z,33.18
2019-04-22T06:29:06.992Z,31.57
2019-04-22T06:29:55.328Z,31.52
2019-04-22T06:31:02.557Z,29.91
2019-04-22T06:32:17.531Z,29.28
2019-04-22T06:33:02.781Z,27.67
2019-04-22T06:34:05.680Z,27.56
2019-04-22T06:35:11.353Z,27.83
2019-04-22T06:36:02.066Z,28.20
2019-04-22T06:38:22.777Z,26.98
2019-04-22T06:38:59.011Z,25.78
2019-04-22T06:40:00.868Z,26.26
2019-04-22T06:41:05.740Z,26.35
2019-04-22T06:42:01.078Z,26.24
2019-04-22T06:43:06.209Z,25.73
2019-04-22T06:44:04.787Z,25.72
2019-04-22T06:45:04.226Z,25.90
2019-04-22T06:46:02.414Z,25.01
2019-04-22T06:46:56.394Z,25.18
2019-04-22T06:48:08.024Z,24.29
2019-04-22T06:49:03.647Z,23.87
2019-04-22T06:49:59.310Z,23.37
2019-04-22T06:51:18.415Z,23.93
2019-04-22T06:52:06.011Z,22.56
2019-04-22T06:54:01.712Z,21.46
2019-04-22T06:55:03.916Z,22.13
2019-04-22T06:56:00.274Z,22.71
2019-04-22T06:57:02.497Z,20.09
2019-04-22T06:57:59.872Z,20.50
2019-04-22T06:58:59.374Z,20.79
2019-04-22T06:59:58.559Z,19.51
2019-04-22T07:01:19.355Z,20.69
2019-04-22T07:02:02.187Z,21.46
2019-04-22T07:03:18.949Z,21.15
2019-04-22T07:03:56.945Z,21.25
2019-04-22T07:04:56.343Z,21.14
2019-04-22T07:05:57.113Z,20.04
2019-04-22T07:07:05.373Z,19.35
2019-04-22T07:08:04.433Z,18.96
2019-04-22T07:09:20.743Z,19.46
2019-04-22T07:10:11.379Z,19.27
2019-04-22T07:10:54.790Z,20.24
2019-04-22T07:12:03.499Z,20.14
2019-04-22T07:12:53.895Z,18.51
2019-04-22T07:15:03.017Z,20.74
2019-04-22T07:16:00.402Z,20.14
2019-04-22T07:16:56.040Z,19.37
2019-04-22T07:18:06.183Z,19.50
2019-04-22T07:18:56.878Z,19.52
2019-04-22T07:19:57.850Z,20.30
2019-04-22T07:22:00.447Z,20.67
2019-04-22T07:23:06.787Z,20.28
2019-04-22T07:24:14.504Z,19.73
2019-04-22T07:24:59.122Z,20.82
2019-04-22T07:25:58.148Z,20.81
2019-04-22T07:26:58.838Z,19.71
2019-04-22T07:28:01.048Z,20.00
2019-04-22T07:28:56.472Z,19.78
2019-04-22T07:30:03.893Z,19.98
2019-04-22T07:31:02.423Z,19.50
2019-04-22T07:32:01.578Z,20.28
2019-04-22T07:33:11.444Z,19.51
2019-04-22T07:34:02.243Z,19.70
2019-04-22T07:35:01.140Z,20.28
2019-04-22T07:37:09.515Z,19.58
2019-04-22T07:38:00.948Z,19.27
2019-04-22T07:39:01.835Z,19.09
2019-04-22T07:39:56.250Z,20.77
2019-04-22T07:40:55.553Z,20.48
2019-04-22T07:41:59.130Z,20.07
2019-04-22T07:42:59.275Z,19.20
2019-04-22T07:44:13.012Z,19.60
2019-04-22T07:45:01.114Z,19.99
2019-04-22T07:45:53.748Z,19.40
2019-04-22T07:47:07.486Z,19.59
2019-04-22T07:48:02.689Z,18.60
2019-04-22T07:48:57.765Z,18.49
2019-04-22T07:50:03.277Z,18.68
2019-04-22T07:51:55.875Z,18.66
2019-04-22T07:53:02.902Z,18.55
2019-04-22T07:53:59.694Z,16.69
2019-04-22T07:54:56.971Z,17.96
2019-04-22T07:55:57.478Z,17.27
2019-04-22T07:57:02.954Z,17.10
2019-04-22T07:57:58.235Z,17.69
2019-04-22T07:58:56.862Z,19.06
2019-04-22T08:00:06.882Z,18.37
2019-04-22T08:01:03.777Z,19.45
2019-04-22T08:01:55.992Z,18.49
2019-04-22T08:02:59.730Z,18.77
2019-04-22T08:05:05.101Z,19.34
2019-04-22T08:06:08.688Z,18.07
2019-04-22T08:06:58.774Z,17.18
2019-04-22T08:08:02.580Z,17.36
2019-04-22T08:09:01.727Z,17.64
2019-04-22T08:11:59.429Z,16.24
2019-04-22T08:12:57.988Z,17.61
2019-04-22T08:13:54.644Z,18.88
2019-04-22T08:14:58.389Z,17.83
2019-04-22T08:15:58.507Z,18.36
2019-04-22T08:17:13.572Z,18.66
2019-04-22T08:18:06.830Z,18.38
2019-04-22T08:19:04.316Z,19.36
2019-04-22T08:20:02.717Z,19.10
2019-04-22T08:20:59.028Z,19.20
2019-04-22T08:21:58.120Z,18.21
2019-04-22T08:23:04.830Z,19.92
2019-04-22T08:25:10.399Z,18.91
2019-04-22T08:25:55.483Z,17.82
2019-04-22T08:26:58.153Z,18.01
2019-04-22T08:27:58.405Z,18.19
2019-04-22T08:28:59.358Z,17.73
2019-04-22T08:31:02.030Z,18.21
2019-04-22T08:33:01.025Z,17.74
2019-04-22T08:34:02.105Z,18.54
2019-04-22T08:34:55.632Z,19.10
2019-04-22T08:37:26.224Z,18.54
2019-04-22T08:38:11.645Z,17.55
2019-04-22T08:39:17.194Z,17.05
2019-04-22T08:40:01.602Z,18.02
2019-04-22T08:40:56.484Z,17.24
2019-04-22T08:41:51.237Z,17.13
2019-04-22T08:43:06.811Z,15.97
2019-04-22T08:44:07.943Z,17.44
2019-04-22T08:45:09.667Z,16.67
2019-04-22T08:46:01.683Z,18.26
2019-04-22T08:47:55.074Z,18.00
2019-04-22T08:50:02.457Z,20.19
2019-04-22T08:51:02.732Z,20.49
2019-04-22T08:51:58.920Z,19.60
2019-04-22T08:53:02.093Z,18.70
2019-04-22T08:54:00.101Z,18.79
2019-04-22T08:54:57.380Z,18.03
2019-04-22T08:56:09.120Z,18.70
2019-04-22T08:56:58.367Z,18.00
2019-04-22T08:58:16.799Z,17.51
2019-04-22T08:59:07.097Z,18.49
2019-04-22T08:59:48.766Z,18.76
2019-04-22T09:01:06.494Z,18.26
2019-04-22T09:01:57.477Z,17.66
2019-04-22T09:02:59.438Z,17.48
2019-04-22T09:03:58.441Z,17.96
2019-04-22T09:04:56.552Z,17.44
2019-04-22T09:07:12.884Z,17.35
2019-04-22T09:08:05.885Z,16.76
2019-04-22T09:09:02.071Z,16.58
2019-04-22T09:09:58.273Z,16.19
2019-04-22T09:10:58.602Z,16.09
2019-04-22T09:12:14.708Z,15.89
2019-04-22T09:13:02.416Z,16.47
2019-04-22T09:14:49.396Z,16.90
2019-04-22T09:15:55.552Z,17.49
2019-04-22T09:17:02.260Z,18.09
2019-04-22T09:18:02.433Z,16.99
2019-04-22T09:18:59.264Z,15.30
2019-04-22T09:19:59.984Z,15.91
2019-04-22T09:21:07.088Z,16.49
2019-04-22T09:22:00.589Z,15.94
2019-04-22T09:23:03.930Z,16.91
2019-04-22T09:23:58.692Z,16.91
2019-04-22T09:24:52.728Z,16.53
2019-04-22T09:25:53.226Z,16.03
2019-04-22T09:26:54.524Z,16.41
2019-04-22T09:27:57.475Z,16.00
2019-04-22T09:29:02.843Z,15.73
2019-04-22T09:29:58.508Z,16.44
2019-04-22T09:31:01.928Z,16.93
2019-04-22T09:33:06.386Z,16.53
2019-04-22T09:33:53.278Z,16.42
2019-04-22T09:34:56.589Z,16.63
2019-04-22T09:36:07.835Z,16.44
2019-04-22T09:37:08.108Z,16.13
2019-04-22T09:38:11.402Z,16.92
2019-04-22T09:38:52.927Z,17.00
2019-04-22T09:40:09.183Z,17.58
2019-04-22T09:41:00.497Z,16.96
2019-04-22T09:41:59.221Z,15.50
2019-04-22T09:43:01.074Z,16.03
2019-04-22T09:43:56.667Z,17.74
2019-04-22T09:44:55.478Z,18.12
2019-04-22T09:48:05.911Z,17.10
2019-04-22T09:49:00.303Z,16.10
2019-04-22T09:50:51.945Z,16.66
2019-04-22T09:51:58.207Z,16.64
2019-04-22T09:53:03.516Z,16.36
2019-04-22T09:54:00.776Z,16.64
2019-04-22T09:55:00.251Z,15.19
2019-04-22T09:55:57.243Z,16.80
2019-04-22T09:56:55.057Z,18.32
2019-04-22T09:57:58.838Z,18.52
2019-04-22T09:58:59.003Z,18.10
2019-04-22T10:01:03.082Z,17.90
2019-04-22T10:02:13.224Z,18.30
2019-04-22T10:03:02.989Z,17.72
2019-04-22T10:05:05.627Z,17.99
2019-04-22T10:05:58.238Z,18.05
2019-04-22T10:06:54.730Z,16.75
2019-04-22T10:07:59.391Z,17.12
2019-04-22T10:09:12.714Z,16.03
2019-04-22T10:10:03.683Z,15.37
2019-04-22T10:10:57.718Z,16.43
2019-04-22T10:11:55.144Z,15.83
2019-04-22T10:12:54.057Z,16.11
2019-04-22T10:14:55.754Z,14.74
2019-04-22T10:15:50.424Z,15.11
2019-04-22T10:16:53.822Z,15.48
2019-04-22T10:17:58.202Z,14.72
2019-04-22T10:19:00.844Z,14.72
2019-04-22T10:19:57.927Z,15.31
2019-04-22T10:21:00.647Z,15.71
2019-04-22T10:22:57.741Z,14.95
2019-04-22T10:23:57.956Z,15.07
2019-04-22T10:25:01.669Z,15.96
2019-04-22T10:25:57.438Z,15.96
2019-04-22T10:26:57.058Z,14.79
2019-04-22T10:28:01.802Z,16.10
2019-04-22T10:29:01.118Z,17.18
2019-04-22T10:30:52.210Z,15.88
2019-04-22T10:31:55.854Z,17.24
2019-04-22T10:32:56.351Z,16.74
2019-04-22T10:33:49.740Z,15.85
2019-04-22T10:34:38.802Z,17.60
2019-04-22T10:35:32.593Z,16.61
2019-04-22T10:36:31.050Z,16.11
2019-04-22T10:37:30.115Z,16.20
2019-04-22T10:38:30.585Z,16.11
2019-04-22T10:39:39.670Z,16.49
2019-04-22T10:40:32.390Z,16.11
2019-04-22T10:41:30.684Z,15.83
2019-04-22T10:42:29.731Z,14.88
2019-04-22T10:43:29.743Z,15.38
2019-04-22T10:44:30.927Z,16.66
2019-04-22T10:45:30.337Z,16.78
2019-04-22T10:46:30.544Z,18.07
2019-04-22T10:47:29.891Z,16.02
2019-04-22T10:48:30.267Z,16.59
2019-04-22T10:49:30.574Z,17.74
2019-04-22T10:50:31.455Z,18.31
2019-04-22T10:51:30.756Z,17.72
2019-04-22T10:52:29.724Z,21.14
2019-04-22T10:53:29.621Z,19.48
2019-04-22T10:54:29.629Z,18.48
2019-04-22T10:55:29.601Z,15.85
2019-04-22T10:56:30.664Z,16.36
2019-04-22T10:57:29.813Z,19.09
2019-04-22T10:58:36.601Z,17.63
2019-04-22T10:59:29.579Z,17.35
2019-04-22T11:00:29.550Z,17.18
2019-04-22T11:01:29.674Z,16.99
2019-04-22T11:02:29.875Z,17.60
2019-04-22T11:03:30.969Z,17.68
2019-04-22T11:04:30.180Z,18.15
2019-04-22T11:05:30.258Z,19.80
2019-04-22T11:06:29.592Z,19.00
2019-04-22T11:07:36.304Z,20.14
2019-04-22T11:08:38.584Z,17.08
2019-04-22T11:09:30.948Z,14.58
2019-04-22T11:10:44.521Z,15.75
2019-04-22T11:11:43.957Z,14.68
2019-04-22T11:12:34.099Z,16.14
2019-04-22T11:13:31.777Z,15.39
2019-04-22T11:14:30.744Z,19.78
2019-04-22T11:15:30.627Z,15.97
2019-04-22T11:16:29.847Z,16.06
2019-04-22T11:17:29.390Z,17.60
2019-04-22T11:18:29.564Z,14.79
2019-04-22T11:19:29.862Z,16.55
2019-04-22T11:20:29.352Z,17.13
2019-04-22T11:21:29.646Z,14.89
2019-04-22T11:22:33.286Z,16.00
2019-04-22T11:23:30.308Z,16.58
2019-04-22T11:24:30.614Z,16.08
2019-04-22T11:25:29.924Z,16.46
2019-04-22T11:26:29.962Z,16.44
2019-04-22T11:27:30.802Z,16.24
2019-04-22T11:28:29.663Z,16.61
2019-04-22T11:29:29.890Z,15.84
2019-04-22T11:30:30.302Z,17.68
2019-04-22T11:31:30.552Z,15.05
2019-04-22T11:32:30.614Z,14.57
2019-04-22T11:33:30.337Z,14.77
2019-04-22T11:34:29.214Z,14.87
2019-04-22T11:35:29.836Z,15.28
2019-04-22T11:36:30.772Z,15.19
2019-04-22T11:37:30.369Z,15.01
2019-04-22T11:38:29.152Z,16.27
2019-04-22T11:39:31.199Z,15.08
2019-04-22T11:40:37.814Z,14.49
2019-04-22T11:41:31.221Z,14.58
2019-04-22T11:42:30.095Z,13.99
2019-04-22T11:43:30.287Z,14.59
2019-04-22T11:44:30.623Z,16.19
2019-04-22T11:45:29.239Z,15.78
2019-04-22T11:46:29.547Z,16.49
2019-04-22T11:47:29.683Z,15.41
2019-04-22T11:48:29.239Z,15.11
2019-04-22T11:49:30.024Z,16.58
2019-04-22T11:50:30.187Z,16.08
2019-04-22T11:51:29.808Z,16.09
2019-04-22T11:52:29.006Z,17.83
2019-04-22T11:53:29.075Z,17.52
2019-04-22T11:54:28.987Z,18.48
2019-04-22T11:55:28.990Z,17.61
2019-04-22T11:56:29.378Z,19.06
2019-04-22T11:57:28.964Z,17.89
2019-04-22T11:58:28.991Z,18.66
2019-04-22T11:59:29.084Z,17.58
2019-04-22T12:00:29.389Z,18.35
2019-04-22T12:01:28.919Z,18.05
2019-04-22T12:02:29.258Z,18.35
2019-04-22T12:03:28.886Z,18.04
2019-04-22T12:04:29.995Z,17.36
2019-04-22T12:05:30.011Z,17.78
2019-04-22T12:06:28.855Z,17.40
2019-04-22T12:07:31.716Z,19.06
2019-04-22T12:08:29.185Z,17.38
2019-04-22T12:09:29.937Z,17.19
2019-04-22T12:10:36.962Z,17.29
2019-04-22T12:11:30.261Z,17.58
2019-04-22T12:12:29.945Z,17.69
2019-04-22T12:13:30.161Z,18.38
2019-04-22T12:14:30.002Z,19.16
2019-04-22T12:15:28.959Z,18.27
2019-04-22T12:16:29.658Z,18.75
2019-04-22T12:17:29.848Z,18.75
2019-04-22T12:18:29.130Z,17.78
2019-04-22T12:19:29.439Z,18.09
2019-04-22T12:20:29.411Z,20.15
2019-04-22T12:21:28.992Z,19.87
2019-04-22T12:22:29.276Z,19.87
2019-04-22T12:23:29.394Z,19.16
2019-04-22T12:24:30.137Z,18.76
2019-04-22T12:25:39.669Z,18.78
2019-04-22T12:26:30.657Z,18.79
2019-04-22T12:27:29.970Z,18.49
2019-04-22T12:28:28.868Z,19.48
2019-04-22T12:29:29.024Z,20.54
2019-04-22T12:30:29.777Z,18.59
2019-04-22T12:31:29.310Z,19.37
2019-04-22T12:32:29.696Z,18.73
2019-04-22T12:33:29.512Z,19.59
2019-04-22T12:34:29.240Z,19.48
2019-04-22T12:35:28.548Z,17.63
2019-04-22T12:36:28.803Z,19.31
2019-04-22T12:37:34.376Z,18.82
2019-04-22T12:38:29.553Z,20.10
2019-04-22T12:39:29.550Z,18.25
2019-04-22T12:40:38.272Z,19.51
2019-04-22T12:41:29.508Z,19.79
2019-04-22T12:42:29.296Z,19.11
2019-04-22T12:43:29.831Z,19.89
2019-04-22T12:44:28.571Z,19.58
2019-04-22T12:45:29.825Z,19.67
2019-04-22T12:46:28.450Z,19.17
2019-04-22T12:47:28.424Z,19.35
2019-04-22T12:48:28.413Z,17.68
2019-04-22T12:49:29.891Z,19.91
2019-04-22T12:50:33.863Z,19.23
2019-04-22T12:51:29.397Z,18.76
2019-04-22T12:52:36.947Z,19.18
2019-04-22T12:53:29.920Z,19.31
2019-04-22T12:54:29.087Z,19.89
2019-04-22T12:55:28.338Z,19.41
2019-04-22T12:56:29.807Z,19.32
2019-04-22T12:57:28.456Z,19.31
2019-04-22T12:58:29.601Z,19.59
2019-04-22T12:59:29.787Z,18.62
2019-04-22T13:00:28.283Z,18.52
2019-04-22T13:01:28.992Z,18.90
2019-04-22T13:02:29.306Z,18.80
2019-04-22T13:03:28.621Z,18.52
2019-04-22T13:04:28.244Z,18.13
2019-04-22T13:05:29.234Z,18.52
2019-04-22T13:06:28.240Z,19.21
2019-04-22T13:07:29.438Z,18.05
2019-04-22T13:08:29.628Z,18.54
2019-04-22T13:09:29.421Z,18.54
2019-04-22T13:10:40.235Z,18.54
2019-04-22T13:11:34.067Z,18.54
2019-04-22T13:12:29.152Z,19.21
2019-04-22T13:13:29.042Z,17.78
2019-04-22T13:14:28.134Z,18.39
2019-04-22T13:15:28.882Z,19.57
2019-04-22T13:16:29.302Z,18.60
2019-04-22T13:17:29.153Z,18.70
2019-04-22T13:18:37.460Z,19.18
2019-04-22T13:19:30.242Z,18.68
2019-04-22T13:20:28.295Z,18.66
2019-04-22T13:21:28.910Z,19.06
2019-04-22T13:22:28.046Z,19.26
2019-04-22T13:23:29.649Z,18.57
2019-04-22T13:24:28.124Z,18.47
2019-04-22T13:25:29.971Z,19.14
2019-04-22T13:26:29.646Z,18.74
2019-04-22T13:27:29.045Z,18.34
2019-04-22T13:28:29.244Z,17.92
2019-04-22T13:29:27.977Z,17.82
2019-04-22T13:30:28.453Z,17.63
2019-04-22T13:31:28.850Z,17.83
2019-04-22T13:32:28.918Z,17.45
2019-04-22T13:33:28.693Z,18.23
2019-04-22T13:34:37.399Z,18.12
2019-04-22T13:35:29.813Z,17.25
2019-04-22T13:36:29.749Z,18.12
2019-04-22T13:37:28.600Z,17.82
2019-04-22T13:38:29.054Z,18.71
2019-04-22T13:39:29.186Z,19.23
2019-04-22T13:40:28.865Z,19.03
2019-04-22T13:41:35.799Z,18.66
2019-04-22T13:42:30.130Z,18.66
2019-04-22T13:43:29.121Z,18.27
2019-04-22T13:44:28.114Z,18.36
2019-04-22T13:45:27.925Z,17.97
2019-04-22T13:46:31.299Z,17.87
2019-04-22T13:47:41.984Z,17.49
2019-04-22T13:48:49.893Z,18.17
2019-04-22T13:50:08.275Z,17.68
2019-04-22T13:50:56.433Z,17.68
2019-04-22T13:53:10.024Z,19.06
2019-04-22T13:54:57.916Z,18.97
2019-04-22T13:55:57.943Z,19.07
2019-04-22T13:56:49.209Z,19.46
2019-04-22T13:57:46.327Z,19.45
2019-04-22T13:58:42.745Z,18.48
2019-04-22T13:59:38.116Z,19.77
2019-04-22T14:00:28.692Z,18.60
2019-04-22T14:01:28.335Z,19.57
2019-04-22T14:02:28.634Z,19.28
2019-04-22T14:03:29.024Z,19.27
2019-04-22T14:04:28.544Z,19.47
2019-04-22T14:05:28.891Z,19.68
2019-04-22T14:06:28.945Z,19.29
2019-04-22T14:07:28.635Z,20.37
2019-04-22T14:08:29.076Z,19.98
2019-04-22T14:09:28.329Z,20.28
2019-04-22T14:10:27.534Z,20.19
2019-04-22T14:11:37.628Z,20.39
2019-04-22T14:12:28.815Z,21.49
2019-04-22T14:13:27.971Z,20.61
2019-04-22T14:14:28.155Z,21.27
2019-04-22T14:15:27.846Z,20.67
2019-04-22T14:16:28.886Z,20.28
2019-04-22T14:17:27.473Z,20.27
2019-04-22T14:18:28.713Z,19.87
2019-04-22T14:19:27.875Z,20.76
2019-04-22T14:20:29.478Z,20.29
2019-04-22T14:21:27.419Z,20.89
2019-04-22T14:22:28.332Z,20.41
2019-04-22T14:23:28.691Z,21.69
2019-04-22T14:24:27.921Z,21.41
2019-04-22T14:25:28.415Z,21.80
2019-04-22T14:26:41.307Z,20.70
2019-04-22T14:27:43.528Z,21.39
2019-04-22T14:28:29.249Z,20.99
2019-04-22T14:29:27.325Z,20.61
2019-04-22T14:30:28.620Z,20.99
2019-04-22T14:31:28.560Z,20.98
2019-04-22T14:33:28.271Z,20.80
2019-04-22T14:34:28.543Z,21.19
2019-04-22T14:35:27.253Z,21.11
2019-04-22T14:36:27.598Z,21.30
2019-04-22T14:37:27.798Z,21.02
2019-04-22T14:38:27.947Z,21.00
2019-04-22T14:39:28.086Z,20.70